首页
METAR-TAF:

METAR-TAF

机场 :

柯克沃爾機場

柯克沃尔, 苏格兰

纬度: 58-57N, 经度: 002-54W, 海拔: 21米

当前天气观测

该预报发布于31分钟前的13:20 UTC
风速4节,风向西转西南
温度 16°C
湿度 94%
气压 1001 hPa
能見度: 4000
多云层高于400英尺
多云层高于1500英尺
附近有雾

METAR: EGPA 051320Z 24004KT 4000 VCFG BKN004 BKN015 16/15 Q1001

时间: 14:51 (13:51 UTC)

预报

该预报发布于58分钟前的12:53 UTC
预报有效从05日的 13点(UTC)到 05日的 21点(UTC)
风速6节,风向西转西南
能见度10公里或以上
少量云层高于1500英尺
散云层高于2500英尺
短暂存在
从 05日的 13点(UTC)到 05日的 21点(UTC)
能見度: 5000
多云层高于800英尺
小雨, 毛毛雨
几率 30% :
短暂存在
从 05日的 13点(UTC)到 05日的 21点(UTC)
能見度: 2000
多云层高于400英尺
雨, 毛毛雨, 轻雾

TAF: EGPA 051253Z 0513/0521 24006KT 9999 FEW015 SCT025 TEMPO 0513/0521 5000 -RADZ BKN008 PROB30 TEMPO 0513/0521 2000 RADZ BR BKN004

超过4000个机场的气象观测和天气预报(METAR&TAF报告)。

可查询的气象台以黄色和红色小点在地图上表示。

将鼠标移到小点上方,可查看气象台名称。

然后点击查看天气观测和预报。

如需切换地图:点击带黑十字的绿色按钮放大地图;点击带横线的绿色按钮缩小地图;或者点击绿色箭头查看邻近地区的地图。


METAR-TAF: